sensor_id;sensor_type;location;lat;lon;timestamp;P1;durP1;ratioP1;P2;durP2;ratioP2
43670;SDS011;29267;50.906;7.248;2023-08-12T00:01:39;20.20;;;10.48;;
43670;SDS011;29267;50.906;7.248;2023-08-12T00:04:04;20.25;;;10.68;;
43670;SDS011;29267;50.906;7.248;2023-08-12T00:06:30;17.35;;;10.68;;
43670;SDS011;29267;50.906;7.248;2023-08-12T00:08:56;23.52;;;11.63;;
43670;SDS011;29267;50.906;7.248;2023-08-12T00:11:21;20.75;;;10.93;;
43670;SDS011;29267;50.906;7.248;2023-08-12T00:13:47;18.25;;;10.57;;
43670;SDS011;29267;50.906;7.248;2023-08-12T00:16:12;15.93;;;10.35;;
43670;SDS011;29267;50.906;7.248;2023-08-12T00:18:38;17.38;;;10.38;;
43670;SDS011;29267;50.906;7.248;2023-08-12T00:21:07;18.85;;;9.93;;
43670;SDS011;29267;50.906;7.248;2023-08-12T00:23:37;18.13;;;9.25;;
43670;SDS011;29267;50.906;7.248;2023-08-12T00:26:04;17.13;;;9.82;;
43670;SDS011;29267;50.906;7.248;2023-08-12T00:28:29;16.25;;;10.10;;
43670;SDS011;29267;50.906;7.248;2023-08-12T00:30:55;17.48;;;10.20;;
43670;SDS011;29267;50.906;7.248;2023-08-12T00:33:21;18.63;;;10.75;;
43670;SDS011;29267;50.906;7.248;2023-08-12T00:35:46;18.30;;;11.05;;
43670;SDS011;29267;50.906;7.248;2023-08-12T00:38:12;21.10;;;10.98;;
43670;SDS011;29267;50.906;7.248;2023-08-12T00:40:37;14.45;;;10.07;;
43670;SDS011;29267;50.906;7.248;2023-08-12T00:43:03;16.45;;;10.45;;
43670;SDS011;29267;50.906;7.248;2023-08-12T00:45:29;18.35;;;9.70;;
43670;SDS011;29267;50.906;7.248;2023-08-12T00:47:54;18.08;;;9.52;;
43670;SDS011;29267;50.906;7.248;2023-08-12T00:50:20;17.42;;;10.57;;
43670;SDS011;29267;50.906;7.248;2023-08-12T00:52:47;15.82;;;10.20;;
43670;SDS011;29267;50.906;7.248;2023-08-12T00:55:13;17.20;;;8.80;;
43670;SDS011;29267;50.906;7.248;2023-08-12T00:57:39;15.68;;;8.80;;
43670;SDS011;29267;50.906;7.248;2023-08-12T01:00:05;20.58;;;10.93;;
43670;SDS011;29267;50.906;7.248;2023-08-12T01:02:31;17.67;;;10.18;;
43670;SDS011;29267;50.906;7.248;2023-08-12T01:04:58;16.58;;;11.60;;
43670;SDS011;29267;50.906;7.248;2023-08-12T01:07:23;15.93;;;10.10;;
43670;SDS011;29267;50.906;7.248;2023-08-12T01:09:49;17.25;;;10.93;;
43670;SDS011;29267;50.906;7.248;2023-08-12T01:12:37;18.02;;;10.35;;
43670;SDS011;29267;50.906;7.248;2023-08-12T01:15:07;14.40;;;8.95;;
43670;SDS011;29267;50.906;7.248;2023-08-12T01:17:37;17.60;;;10.55;;
43670;SDS011;29267;50.906;7.248;2023-08-12T01:20:06;17.02;;;9.55;;
43670;SDS011;29267;50.906;7.248;2023-08-12T01:22:33;18.90;;;10.93;;
43670;SDS011;29267;50.906;7.248;2023-08-12T01:25:04;19.08;;;10.88;;
43670;SDS011;29267;50.906;7.248;2023-08-12T01:27:30;14.30;;;10.52;;
43670;SDS011;29267;50.906;7.248;2023-08-12T01:29:56;19.58;;;11.55;;
43670;SDS011;29267;50.906;7.248;2023-08-12T01:32:38;15.27;;;11.23;;
43670;SDS011;29267;50.906;7.248;2023-08-12T01:37:57;21.85;;;11.88;;
43670;SDS011;29267;50.906;7.248;2023-08-12T01:40:24;18.50;;;12.57;;
43670;SDS011;29267;50.906;7.248;2023-08-12T01:42:51;17.02;;;11.77;;
43670;SDS011;29267;50.906;7.248;2023-08-12T01:45:17;18.38;;;11.70;;
43670;SDS011;29267;50.906;7.248;2023-08-12T01:47:44;22.75;;;12.77;;
43670;SDS011;29267;50.906;7.248;2023-08-12T01:50:09;14.48;;;10.07;;
43670;SDS011;29267;50.906;7.248;2023-08-12T01:52:35;19.50;;;11.23;;
43670;SDS011;29267;50.906;7.248;2023-08-12T01:55:01;21.95;;;10.98;;
43670;SDS011;29267;50.906;7.248;2023-08-12T01:57:27;19.50;;;12.45;;
43670;SDS011;29267;50.906;7.248;2023-08-12T01:59:52;17.60;;;11.88;;
43670;SDS011;29267;50.906;7.248;2023-08-12T02:02:18;19.10;;;11.38;;
43670;SDS011;29267;50.906;7.248;2023-08-12T02:04:43;17.17;;;12.13;;
43670;SDS011;29267;50.906;7.248;2023-08-12T02:07:09;23.00;;;12.07;;
43670;SDS011;29267;50.906;7.248;2023-08-12T02:09:35;18.70;;;11.30;;
43670;SDS011;29267;50.906;7.248;2023-08-12T02:12:00;15.55;;;10.55;;
43670;SDS011;29267;50.906;7.248;2023-08-12T02:14:26;17.60;;;9.95;;
43670;SDS011;29267;50.906;7.248;2023-08-12T02:16:52;15.38;;;9.50;;
43670;SDS011;29267;50.906;7.248;2023-08-12T02:19:17;12.18;;;7.82;;
43670;SDS011;29267;50.906;7.248;2023-08-12T02:21:43;12.43;;;8.02;;
43670;SDS011;29267;50.906;7.248;2023-08-12T02:24:08;16.13;;;8.40;;
43670;SDS011;29267;50.906;7.248;2023-08-12T02:26:34;10.93;;;8.38;;
43670;SDS011;29267;50.906;7.248;2023-08-12T02:29:00;12.05;;;7.97;;
43670;SDS011;29267;50.906;7.248;2023-08-12T02:31:26;14.38;;;7.63;;
43670;SDS011;29267;50.906;7.248;2023-08-12T02:33:51;16.40;;;8.48;;
43670;SDS011;29267;50.906;7.248;2023-08-12T02:36:17;17.15;;;8.25;;
43670;SDS011;29267;50.906;7.248;2023-08-12T02:38:42;11.20;;;7.95;;
43670;SDS011;29267;50.906;7.248;2023-08-12T02:41:08;14.20;;;8.38;;
43670;SDS011;29267;50.906;7.248;2023-08-12T02:43:34;11.57;;;8.00;;
43670;SDS011;29267;50.906;7.248;2023-08-12T02:46:00;15.90;;;8.02;;
43670;SDS011;29267;50.906;7.248;2023-08-12T02:48:25;10.57;;;7.32;;
43670;SDS011;29267;50.906;7.248;2023-08-12T02:50:51;10.73;;;7.30;;
43670;SDS011;29267;50.906;7.248;2023-08-12T02:53:16;12.40;;;7.93;;
43670;SDS011;29267;50.906;7.248;2023-08-12T02:55:42;11.60;;;7.32;;
43670;SDS011;29267;50.906;7.248;2023-08-12T02:58:10;11.88;;;7.00;;
43670;SDS011;29267;50.906;7.248;2023-08-12T03:00:35;12.68;;;7.07;;
43670;SDS011;29267;50.906;7.248;2023-08-12T03:03:01;11.55;;;6.90;;
43670;SDS011;29267;50.906;7.248;2023-08-12T03:05:27;10.82;;;6.85;;
43670;SDS011;29267;50.906;7.248;2023-08-12T03:07:52;11.80;;;6.00;;
43670;SDS011;29267;50.906;7.248;2023-08-12T03:10:18;9.75;;;6.63;;
43670;SDS011;29267;50.906;7.248;2023-08-12T03:12:44;11.93;;;6.10;;
43670;SDS011;29267;50.906;7.248;2023-08-12T03:15:09;13.93;;;6.57;;
43670;SDS011;29267;50.906;7.248;2023-08-12T03:17:36;10.75;;;6.57;;
43670;SDS011;29267;50.906;7.248;2023-08-12T03:20:03;9.20;;;6.18;;
43670;SDS011;29267;50.906;7.248;2023-08-12T03:22:30;14.13;;;6.32;;
43670;SDS011;29267;50.906;7.248;2023-08-12T03:24:56;10.63;;;6.28;;
43670;SDS011;29267;50.906;7.248;2023-08-12T03:27:22;13.90;;;6.38;;
43670;SDS011;29267;50.906;7.248;2023-08-12T03:29:47;11.90;;;6.85;;
43670;SDS011;29267;50.906;7.248;2023-08-12T03:32:13;8.23;;;6.30;;
43670;SDS011;29267;50.906;7.248;2023-08-12T03:34:38;11.85;;;5.93;;
43670;SDS011;29267;50.906;7.248;2023-08-12T03:37:04;12.50;;;6.43;;
43670;SDS011;29267;50.906;7.248;2023-08-12T03:39:30;8.50;;;6.50;;
43670;SDS011;29267;50.906;7.248;2023-08-12T03:41:56;9.35;;;6.35;;
43670;SDS011;29267;50.906;7.248;2023-08-12T03:44:21;10.63;;;7.05;;
43670;SDS011;29267;50.906;7.248;2023-08-12T03:46:47;12.18;;;7.13;;
43670;SDS011;29267;50.906;7.248;2023-08-12T03:49:13;10.18;;;6.80;;
43670;SDS011;29267;50.906;7.248;2023-08-12T03:51:38;11.98;;;7.20;;
43670;SDS011;29267;50.906;7.248;2023-08-12T03:54:04;13.68;;;8.35;;
43670;SDS011;29267;50.906;7.248;2023-08-12T03:56:30;12.70;;;7.18;;
43670;SDS011;29267;50.906;7.248;2023-08-12T03:58:55;10.57;;;7.47;;
43670;SDS011;29267;50.906;7.248;2023-08-12T04:01:21;13.73;;;8.07;;
43670;SDS011;29267;50.906;7.248;2023-08-12T04:03:46;15.05;;;8.40;;
43670;SDS011;29267;50.906;7.248;2023-08-12T04:06:12;11.55;;;8.02;;
43670;SDS011;29267;50.906;7.248;2023-08-12T04:08:38;13.65;;;9.13;;
43670;SDS011;29267;50.906;7.248;2023-08-12T04:11:04;14.07;;;8.52;;
43670;SDS011;29267;50.906;7.248;2023-08-12T04:13:29;13.27;;;8.90;;
43670;SDS011;29267;50.906;7.248;2023-08-12T04:15:55;9.95;;;8.02;;
43670;SDS011;29267;50.906;7.248;2023-08-12T04:18:21;12.23;;;8.15;;
43670;SDS011;29267;50.906;7.248;2023-08-12T04:20:48;16.80;;;10.02;;
43670;SDS011;29267;50.906;7.248;2023-08-12T04:23:15;12.43;;;9.05;;
43670;SDS011;29267;50.906;7.248;2023-08-12T04:25:42;17.60;;;10.45;;
43670;SDS011;29267;50.906;7.248;2023-08-12T04:28:10;11.85;;;8.88;;
43670;SDS011;29267;50.906;7.248;2023-08-12T04:30:39;11.60;;;8.57;;
43670;SDS011;29267;50.906;7.248;2023-08-12T04:33:08;18.58;;;9.23;;
43670;SDS011;29267;50.906;7.248;2023-08-12T04:35:34;13.45;;;9.15;;
43670;SDS011;29267;50.906;7.248;2023-08-12T04:38:00;12.75;;;8.77;;
43670;SDS011;29267;50.906;7.248;2023-08-12T04:40:25;16.08;;;9.27;;
43670;SDS011;29267;50.906;7.248;2023-08-12T04:42:51;12.45;;;8.73;;
43670;SDS011;29267;50.906;7.248;2023-08-12T04:45:16;13.75;;;9.48;;
43670;SDS011;29267;50.906;7.248;2023-08-12T04:47:42;16.25;;;9.35;;
43670;SDS011;29267;50.906;7.248;2023-08-12T04:50:07;13.00;;;8.27;;
43670;SDS011;29267;50.906;7.248;2023-08-12T04:52:33;11.07;;;8.32;;
43670;SDS011;29267;50.906;7.248;2023-08-12T04:54:59;17.17;;;9.13;;
43670;SDS011;29267;50.906;7.248;2023-08-12T04:57:25;12.43;;;8.68;;
43670;SDS011;29267;50.906;7.248;2023-08-12T04:59:50;15.90;;;7.78;;
43670;SDS011;29267;50.906;7.248;2023-08-12T05:02:16;12.35;;;7.50;;
43670;SDS011;29267;50.906;7.248;2023-08-12T05:04:46;11.15;;;7.65;;
43670;SDS011;29267;50.906;7.248;2023-08-12T05:07:13;7.60;;;6.00;;
43670;SDS011;29267;50.906;7.248;2023-08-12T05:09:39;9.65;;;7.05;;
43670;SDS011;29267;50.906;7.248;2023-08-12T05:12:05;12.40;;;6.55;;
43670;SDS011;29267;50.906;7.248;2023-08-12T05:14:30;9.93;;;6.35;;
43670;SDS011;29267;50.906;7.248;2023-08-12T05:16:56;8.57;;;5.63;;
43670;SDS011;29267;50.906;7.248;2023-08-12T05:19:22;7.47;;;4.88;;
43670;SDS011;29267;50.906;7.248;2023-08-12T05:21:47;8.20;;;4.28;;
43670;SDS011;29267;50.906;7.248;2023-08-12T05:24:13;4.47;;;2.85;;
43670;SDS011;29267;50.906;7.248;2023-08-12T05:26:42;5.13;;;3.13;;
43670;SDS011;29267;50.906;7.248;2023-08-12T05:29:07;4.35;;;3.28;;
43670;SDS011;29267;50.906;7.248;2023-08-12T05:31:33;4.53;;;3.00;;
43670;SDS011;29267;50.906;7.248;2023-08-12T05:33:58;4.10;;;2.78;;
43670;SDS011;29267;50.906;7.248;2023-08-12T05:36:24;5.72;;;2.42;;
43670;SDS011;29267;50.906;7.248;2023-08-12T05:38:50;11.23;;;2.60;;
43670;SDS011;29267;50.906;7.248;2023-08-12T05:41:16;6.32;;;2.72;;
43670;SDS011;29267;50.906;7.248;2023-08-12T05:43:41;4.80;;;2.58;;
43670;SDS011;29267;50.906;7.248;2023-08-12T05:46:07;4.03;;;2.63;;
43670;SDS011;29267;50.906;7.248;2023-08-12T05:48:32;5.88;;;2.85;;
43670;SDS011;29267;50.906;7.248;2023-08-12T05:50:58;4.25;;;2.72;;
43670;SDS011;29267;50.906;7.248;2023-08-12T05:53:24;3.55;;;2.70;;
43670;SDS011;29267;50.906;7.248;2023-08-12T05:55:49;4.57;;;2.90;;
43670;SDS011;29267;50.906;7.248;2023-08-12T05:58:15;5.68;;;2.90;;
43670;SDS011;29267;50.906;7.248;2023-08-12T06:00:40;4.90;;;2.90;;
43670;SDS011;29267;50.906;7.248;2023-08-12T06:03:10;4.30;;;3.10;;
43670;SDS011;29267;50.906;7.248;2023-08-12T06:05:36;4.35;;;3.22;;
43670;SDS011;29267;50.906;7.248;2023-08-12T06:08:02;4.45;;;3.08;;
43670;SDS011;29267;50.906;7.248;2023-08-12T06:10:27;5.72;;;3.67;;
43670;SDS011;29267;50.906;7.248;2023-08-12T06:12:53;7.32;;;3.65;;
43670;SDS011;29267;50.906;7.248;2023-08-12T06:15:19;5.57;;;3.65;;
43670;SDS011;29267;50.906;7.248;2023-08-12T06:17:44;10.85;;;4.60;;
43670;SDS011;29267;50.906;7.248;2023-08-12T06:20:10;7.50;;;4.47;;
43670;SDS011;29267;50.906;7.248;2023-08-12T06:22:36;11.48;;;4.80;;
43670;SDS011;29267;50.906;7.248;2023-08-12T06:25:02;7.38;;;4.95;;
43670;SDS011;29267;50.906;7.248;2023-08-12T06:27:28;7.70;;;5.82;;
43670;SDS011;29267;50.906;7.248;2023-08-12T06:29:54;8.00;;;5.60;;
43670;SDS011;29267;50.906;7.248;2023-08-12T06:32:19;9.18;;;5.82;;
43670;SDS011;29267;50.906;7.248;2023-08-12T06:34:45;8.07;;;6.03;;
43670;SDS011;29267;50.906;7.248;2023-08-12T06:37:10;11.75;;;6.65;;
43670;SDS011;29267;50.906;7.248;2023-08-12T06:39:36;10.60;;;6.57;;
43670;SDS011;29267;50.906;7.248;2023-08-12T06:42:01;8.80;;;6.13;;
43670;SDS011;29267;50.906;7.248;2023-08-12T06:44:28;11.00;;;6.35;;
43670;SDS011;29267;50.906;7.248;2023-08-12T06:46:54;11.35;;;7.35;;
43670;SDS011;29267;50.906;7.248;2023-08-12T06:49:20;8.77;;;6.28;;
43670;SDS011;29267;50.906;7.248;2023-08-12T06:51:45;8.27;;;6.43;;
43670;SDS011;29267;50.906;7.248;2023-08-12T06:54:11;6.35;;;4.50;;
43670;SDS011;29267;50.906;7.248;2023-08-12T06:56:36;8.27;;;5.20;;
43670;SDS011;29267;50.906;7.248;2023-08-12T06:59:02;10.38;;;5.38;;
43670;SDS011;29267;50.906;7.248;2023-08-12T07:01:28;7.82;;;4.03;;
43670;SDS011;29267;50.906;7.248;2023-08-12T07:03:53;4.82;;;3.65;;
43670;SDS011;29267;50.906;7.248;2023-08-12T07:06:19;6.05;;;3.30;;
43670;SDS011;29267;50.906;7.248;2023-08-12T07:08:44;3.95;;;3.08;;
43670;SDS011;29267;50.906;7.248;2023-08-12T07:11:10;5.72;;;3.17;;
43670;SDS011;29267;50.906;7.248;2023-08-12T07:13:35;4.82;;;3.15;;
43670;SDS011;29267;50.906;7.248;2023-08-12T07:16:01;5.25;;;3.38;;
43670;SDS011;29267;50.906;7.248;2023-08-12T07:18:27;6.03;;;3.22;;
43670;SDS011;29267;50.906;7.248;2023-08-12T07:20:53;4.72;;;3.28;;
43670;SDS011;29267;50.906;7.248;2023-08-12T07:23:19;3.88;;;2.78;;
43670;SDS011;29267;50.906;7.248;2023-08-12T07:25:47;4.38;;;2.83;;
43670;SDS011;29267;50.906;7.248;2023-08-12T07:28:13;4.35;;;3.08;;
43670;SDS011;29267;50.906;7.248;2023-08-12T07:30:38;7.25;;;2.80;;
43670;SDS011;29267;50.906;7.248;2023-08-12T07:33:04;8.82;;;2.50;;
43670;SDS011;29267;50.906;7.248;2023-08-12T07:35:30;5.43;;;2.25;;
43670;SDS011;29267;50.906;7.248;2023-08-12T07:37:56;2.58;;;2.10;;
43670;SDS011;29267;50.906;7.248;2023-08-12T07:40:21;3.45;;;2.47;;
43670;SDS011;29267;50.906;7.248;2023-08-12T07:42:47;4.05;;;2.20;;
43670;SDS011;29267;50.906;7.248;2023-08-12T07:45:13;2.40;;;1.92;;
43670;SDS011;29267;50.906;7.248;2023-08-12T07:47:38;5.47;;;2.40;;
43670;SDS011;29267;50.906;7.248;2023-08-12T07:50:04;3.08;;;1.58;;
43670;SDS011;29267;50.906;7.248;2023-08-12T07:52:30;5.07;;;1.80;;
43670;SDS011;29267;50.906;7.248;2023-08-12T07:54:56;4.03;;;2.30;;
43670;SDS011;29267;50.906;7.248;2023-08-12T07:57:21;2.47;;;1.85;;
43670;SDS011;29267;50.906;7.248;2023-08-12T07:59:49;5.45;;;1.88;;
43670;SDS011;29267;50.906;7.248;2023-08-12T08:02:18;3.50;;;1.80;;
43670;SDS011;29267;50.906;7.248;2023-08-12T08:04:43;3.10;;;1.80;;
43670;SDS011;29267;50.906;7.248;2023-08-12T08:07:10;5.05;;;1.58;;
43670;SDS011;29267;50.906;7.248;2023-08-12T08:09:35;3.75;;;1.80;;
43670;SDS011;29267;50.906;7.248;2023-08-12T08:12:02;2.30;;;1.60;;
43670;SDS011;29267;50.906;7.248;2023-08-12T08:14:27;2.80;;;1.55;;
43670;SDS011;29267;50.906;7.248;2023-08-12T08:16:53;2.85;;;1.45;;
43670;SDS011;29267;50.906;7.248;2023-08-12T08:19:18;2.88;;;1.58;;
43670;SDS011;29267;50.906;7.248;2023-08-12T08:21:44;3.33;;;1.50;;
43670;SDS011;29267;50.906;7.248;2023-08-12T08:24:10;2.55;;;1.70;;
43670;SDS011;29267;50.906;7.248;2023-08-12T08:26:37;1.55;;;1.10;;
43670;SDS011;29267;50.906;7.248;2023-08-12T08:29:06;3.05;;;1.67;;
43670;SDS011;29267;50.906;7.248;2023-08-12T08:31:32;2.95;;;1.58;;
43670;SDS011;29267;50.906;7.248;2023-08-12T08:33:57;2.08;;;1.48;;
43670;SDS011;29267;50.906;7.248;2023-08-12T08:36:23;3.63;;;1.75;;
43670;SDS011;29267;50.906;7.248;2023-08-12T08:38:49;2.35;;;1.23;;
43670;SDS011;29267;50.906;7.248;2023-08-12T08:41:16;3.92;;;1.42;;
43670;SDS011;29267;50.906;7.248;2023-08-12T08:43:42;2.85;;;1.33;;
43670;SDS011;29267;50.906;7.248;2023-08-12T08:46:13;2.15;;;1.50;;
43670;SDS011;29267;50.906;7.248;2023-08-12T08:48:41;5.78;;;1.67;;
43670;SDS011;29267;50.906;7.248;2023-08-12T08:51:10;3.80;;;1.52;;
43670;SDS011;29267;50.906;7.248;2023-08-12T08:53:40;3.90;;;1.55;;
43670;SDS011;29267;50.906;7.248;2023-08-12T08:56:06;2.80;;;1.40;;
43670;SDS011;29267;50.906;7.248;2023-08-12T08:58:36;3.95;;;1.25;;
43670;SDS011;29267;50.906;7.248;2023-08-12T09:01:02;6.03;;;1.20;;
43670;SDS011;29267;50.906;7.248;2023-08-12T09:03:28;2.25;;;1.40;;
43670;SDS011;29267;50.906;7.248;2023-08-12T09:05:55;3.67;;;1.30;;
43670;SDS011;29267;50.906;7.248;2023-08-12T09:08:22;2.95;;;1.30;;
43670;SDS011;29267;50.906;7.248;2023-08-12T09:10:49;4.07;;;1.52;;
43670;SDS011;29267;50.906;7.248;2023-08-12T09:13:15;2.58;;;1.42;;
43670;SDS011;29267;50.906;7.248;2023-08-12T09:15:43;2.22;;;1.33;;
43670;SDS011;29267;50.906;7.248;2023-08-12T09:18:09;2.20;;;1.23;;
43670;SDS011;29267;50.906;7.248;2023-08-12T09:20:34;1.23;;;0.90;;
43670;SDS011;29267;50.906;7.248;2023-08-12T09:23:01;4.50;;;1.60;;
43670;SDS011;29267;50.906;7.248;2023-08-12T09:25:27;2.33;;;1.13;;
43670;SDS011;29267;50.906;7.248;2023-08-12T09:27:59;4.68;;;2.25;;
43670;SDS011;29267;50.906;7.248;2023-08-12T09:30:28;2.55;;;1.17;;
43670;SDS011;29267;50.906;7.248;2023-08-12T09:33:02;4.97;;;1.73;;
43670;SDS011;29267;50.906;7.248;2023-08-12T09:35:36;4.75;;;1.60;;
43670;SDS011;29267;50.906;7.248;2023-08-12T09:38:03;4.97;;;1.60;;
43670;SDS011;29267;50.906;7.248;2023-08-12T09:40:31;4.47;;;1.50;;
43670;SDS011;29267;50.906;7.248;2023-08-12T09:42:58;6.22;;;1.27;;
43670;SDS011;29267;50.906;7.248;2023-08-12T09:45:24;1.75;;;1.10;;
43670;SDS011;29267;50.906;7.248;2023-08-12T09:47:50;3.30;;;1.40;;
43670;SDS011;29267;50.906;7.248;2023-08-12T09:50:17;2.65;;;1.30;;
43670;SDS011;29267;50.906;7.248;2023-08-12T09:52:45;3.00;;;1.55;;
43670;SDS011;29267;50.906;7.248;2023-08-12T09:55:11;3.50;;;1.20;;
43670;SDS011;29267;50.906;7.248;2023-08-12T09:57:42;2.65;;;1.35;;
43670;SDS011;29267;50.906;7.248;2023-08-12T10:00:09;3.22;;;1.38;;
43670;SDS011;29267;50.906;7.248;2023-08-12T10:02:41;4.10;;;1.55;;
43670;SDS011;29267;50.906;7.248;2023-08-12T10:05:09;5.63;;;1.40;;
43670;SDS011;29267;50.906;7.248;2023-08-12T10:07:37;2.47;;;1.27;;
43670;SDS011;29267;50.906;7.248;2023-08-12T10:10:05;2.75;;;1.50;;
43670;SDS011;29267;50.906;7.248;2023-08-12T10:12:32;4.78;;;1.27;;
43670;SDS011;29267;50.906;7.248;2023-08-12T10:14:58;2.45;;;1.33;;
43670;SDS011;29267;50.906;7.248;2023-08-12T10:17:25;3.55;;;1.52;;
43670;SDS011;29267;50.906;7.248;2023-08-12T10:19:55;1.70;;;1.20;;
43670;SDS011;29267;50.906;7.248;2023-08-12T10:22:23;2.83;;;1.55;;
43670;SDS011;29267;50.906;7.248;2023-08-12T10:24:50;4.70;;;1.35;;
43670;SDS011;29267;50.906;7.248;2023-08-12T10:27:16;4.28;;;1.35;;
43670;SDS011;29267;50.906;7.248;2023-08-12T10:29:43;2.10;;;1.38;;
43670;SDS011;29267;50.906;7.248;2023-08-12T10:32:10;2.40;;;1.30;;
43670;SDS011;29267;50.906;7.248;2023-08-12T10:34:36;5.50;;;1.73;;
43670;SDS011;29267;50.906;7.248;2023-08-12T10:37:02;2.78;;;1.40;;
43670;SDS011;29267;50.906;7.248;2023-08-12T10:39:28;2.92;;;1.35;;
43670;SDS011;29267;50.906;7.248;2023-08-12T10:41:57;3.67;;;1.08;;
43670;SDS011;29267;50.906;7.248;2023-08-12T10:44:26;1.75;;;1.20;;
43670;SDS011;29267;50.906;7.248;2023-08-12T10:47:07;3.20;;;1.55;;
43670;SDS011;29267;50.906;7.248;2023-08-12T10:49:42;2.95;;;1.63;;
43670;SDS011;29267;50.906;7.248;2023-08-12T10:54:55;3.28;;;1.40;;
43670;SDS011;29267;50.906;7.248;2023-08-12T10:57:40;6.32;;;1.90;;
43670;SDS011;29267;50.906;7.248;2023-08-12T11:00:09;1.92;;;1.20;;
43670;SDS011;29267;50.906;7.248;2023-08-12T11:02:38;3.58;;;1.58;;
43670;SDS011;29267;50.906;7.248;2023-08-12T11:05:09;2.28;;;1.40;;
43670;SDS011;29267;50.906;7.248;2023-08-12T11:07:42;2.75;;;1.50;;
43670;SDS011;29267;50.906;7.248;2023-08-12T11:10:10;2.95;;;1.42;;
43670;SDS011;29267;50.906;7.248;2023-08-12T11:12:40;2.72;;;1.25;;
43670;SDS011;29267;50.906;7.248;2023-08-12T11:15:07;2.05;;;1.05;;
43670;SDS011;29267;50.906;7.248;2023-08-12T11:17:35;2.45;;;1.20;;
43670;SDS011;29267;50.906;7.248;2023-08-12T11:20:05;1.95;;;1.13;;
43670;SDS011;29267;50.906;7.248;2023-08-12T11:22:32;2.40;;;1.20;;
43670;SDS011;29267;50.906;7.248;2023-08-12T11:25:01;2.03;;;1.27;;
43670;SDS011;29267;50.906;7.248;2023-08-12T11:27:27;2.85;;;1.30;;
43670;SDS011;29267;50.906;7.248;2023-08-12T11:29:53;2.58;;;1.15;;
43670;SDS011;29267;50.906;7.248;2023-08-12T11:32:18;3.50;;;1.20;;
43670;SDS011;29267;50.906;7.248;2023-08-12T11:34:44;2.67;;;1.50;;
43670;SDS011;29267;50.906;7.248;2023-08-12T11:37:10;2.53;;;1.35;;
43670;SDS011;29267;50.906;7.248;2023-08-12T11:39:35;3.88;;;1.15;;
43670;SDS011;29267;50.906;7.248;2023-08-12T11:42:02;2.45;;;1.27;;
43670;SDS011;29267;50.906;7.248;2023-08-12T11:44:28;2.05;;;1.38;;
43670;SDS011;29267;50.906;7.248;2023-08-12T11:46:54;1.48;;;0.77;;
43670;SDS011;29267;50.906;7.248;2023-08-12T11:49:19;4.25;;;1.15;;
43670;SDS011;29267;50.906;7.248;2023-08-12T11:51:45;5.50;;;1.40;;
43670;SDS011;29267;50.906;7.248;2023-08-12T11:54:13;3.92;;;1.35;;
43670;SDS011;29267;50.906;7.248;2023-08-12T11:56:39;1.23;;;0.90;;
43670;SDS011;29267;50.906;7.248;2023-08-12T11:59:06;3.85;;;1.10;;
43670;SDS011;29267;50.906;7.248;2023-08-12T12:01:31;4.20;;;1.10;;
43670;SDS011;29267;50.906;7.248;2023-08-12T12:03:59;2.05;;;1.38;;
43670;SDS011;29267;50.906;7.248;2023-08-12T12:06:33;2.65;;;1.20;;
43670;SDS011;29267;50.906;7.248;2023-08-12T12:09:05;5.82;;;1.10;;
43670;SDS011;29267;50.906;7.248;2023-08-12T12:11:34;1.50;;;1.00;;
43670;SDS011;29267;50.906;7.248;2023-08-12T12:14:05;3.70;;;1.17;;
43670;SDS011;29267;50.906;7.248;2023-08-12T12:19:04;2.30;;;1.03;;
43670;SDS011;29267;50.906;7.248;2023-08-12T12:21:32;3.22;;;1.35;;
43670;SDS011;29267;50.906;7.248;2023-08-12T12:24:05;1.27;;;0.90;;
43670;SDS011;29267;50.906;7.248;2023-08-12T12:26:31;4.88;;;1.05;;
43670;SDS011;29267;50.906;7.248;2023-08-12T12:28:57;1.23;;;1.00;;
43670;SDS011;29267;50.906;7.248;2023-08-12T12:31:23;1.60;;;1.10;;
43670;SDS011;29267;50.906;7.248;2023-08-12T12:33:48;1.65;;;1.08;;
43670;SDS011;29267;50.906;7.248;2023-08-12T12:36:14;2.15;;;1.25;;
43670;SDS011;29267;50.906;7.248;2023-08-12T12:38:39;1.88;;;1.08;;
43670;SDS011;29267;50.906;7.248;2023-08-12T12:41:05;11.45;;;1.35;;
43670;SDS011;29267;50.906;7.248;2023-08-12T12:43:30;2.42;;;1.20;;
43670;SDS011;29267;50.906;7.248;2023-08-12T12:45:56;1.77;;;1.23;;
43670;SDS011;29267;50.906;7.248;2023-08-12T12:48:21;1.60;;;1.00;;
43670;SDS011;29267;50.906;7.248;2023-08-12T12:50:47;3.50;;;1.40;;
43670;SDS011;29267;50.906;7.248;2023-08-12T12:53:12;1.75;;;1.20;;
43670;SDS011;29267;50.906;7.248;2023-08-12T12:55:38;1.42;;;0.98;;
43670;SDS011;29267;50.906;7.248;2023-08-12T12:58:04;7.20;;;1.70;;
43670;SDS011;29267;50.906;7.248;2023-08-12T13:00:29;9.40;;;1.08;;
43670;SDS011;29267;50.906;7.248;2023-08-12T13:02:55;2.95;;;1.45;;
43670;SDS011;29267;50.906;7.248;2023-08-12T13:05:21;2.83;;;1.17;;
43670;SDS011;29267;50.906;7.248;2023-08-12T13:07:46;2.55;;;0.90;;
43670;SDS011;29267;50.906;7.248;2023-08-12T13:10:12;1.85;;;1.20;;
43670;SDS011;29267;50.906;7.248;2023-08-12T13:12:37;2.75;;;0.60;;
43670;SDS011;29267;50.906;7.248;2023-08-12T13:15:03;2.47;;;0.80;;
43670;SDS011;29267;50.906;7.248;2023-08-12T13:17:29;1.15;;;0.60;;
43670;SDS011;29267;50.906;7.248;2023-08-12T13:19:54;1.55;;;0.73;;
43670;SDS011;29267;50.906;7.248;2023-08-12T13:22:20;2.50;;;0.80;;
43670;SDS011;29267;50.906;7.248;2023-08-12T13:24:46;1.80;;;0.90;;
43670;SDS011;29267;50.906;7.248;2023-08-12T13:27:11;2.45;;;0.77;;
43670;SDS011;29267;50.906;7.248;2023-08-12T13:29:38;0.50;;;0.40;;
43670;SDS011;29267;50.906;7.248;2023-08-12T13:32:03;1.27;;;0.63;;
43670;SDS011;29267;50.906;7.248;2023-08-12T13:34:29;1.55;;;0.68;;
43670;SDS011;29267;50.906;7.248;2023-08-12T13:36:55;1.95;;;0.50;;
43670;SDS011;29267;50.906;7.248;2023-08-12T13:39:20;4.18;;;0.60;;
43670;SDS011;29267;50.906;7.248;2023-08-12T13:41:46;7.93;;;0.93;;
43670;SDS011;29267;50.906;7.248;2023-08-12T13:44:12;2.92;;;0.70;;
43670;SDS011;29267;50.906;7.248;2023-08-12T13:46:38;1.48;;;0.60;;
43670;SDS011;29267;50.906;7.248;2023-08-12T13:49:03;0.75;;;0.60;;
43670;SDS011;29267;50.906;7.248;2023-08-12T13:51:29;1.02;;;0.50;;
43670;SDS011;29267;50.906;7.248;2023-08-12T13:53:56;2.72;;;0.55;;
43670;SDS011;29267;50.906;7.248;2023-08-12T13:56:21;5.95;;;0.80;;
43670;SDS011;29267;50.906;7.248;2023-08-12T13:58:47;1.55;;;0.60;;
43670;SDS011;29267;50.906;7.248;2023-08-12T14:01:12;1.23;;;0.70;;
43670;SDS011;29267;50.906;7.248;2023-08-12T14:03:39;0.90;;;0.60;;
43670;SDS011;29267;50.906;7.248;2023-08-12T14:06:04;0.98;;;0.63;;
43670;SDS011;29267;50.906;7.248;2023-08-12T14:08:30;2.58;;;0.40;;
43670;SDS011;29267;50.906;7.248;2023-08-12T14:10:56;0.45;;;0.30;;
43670;SDS011;29267;50.906;7.248;2023-08-12T14:13:21;0.85;;;0.50;;
43670;SDS011;29267;50.906;7.248;2023-08-12T14:15:47;0.65;;;0.55;;
43670;SDS011;29267;50.906;7.248;2023-08-12T14:18:12;0.98;;;0.47;;
43670;SDS011;29267;50.906;7.248;2023-08-12T14:20:38;1.33;;;0.50;;
43670;SDS011;29267;50.906;7.248;2023-08-12T14:23:04;0.57;;;0.50;;
43670;SDS011;29267;50.906;7.248;2023-08-12T14:25:29;2.85;;;0.52;;
43670;SDS011;29267;50.906;7.248;2023-08-12T14:27:55;0.93;;;0.70;;
43670;SDS011;29267;50.906;7.248;2023-08-12T14:30:23;0.25;;;0.22;;
43670;SDS011;29267;50.906;7.248;2023-08-12T14:32:50;1.40;;;0.50;;
43670;SDS011;29267;50.906;7.248;2023-08-12T14:35:16;1.40;;;0.50;;
43670;SDS011;29267;50.906;7.248;2023-08-12T14:37:42;1.05;;;0.30;;
43670;SDS011;29267;50.906;7.248;2023-08-12T14:40:08;0.80;;;0.40;;
43670;SDS011;29267;50.906;7.248;2023-08-12T14:42:34;0.40;;;0.40;;
43670;SDS011;29267;50.906;7.248;2023-08-12T14:45:00;0.60;;;0.50;;